Aviation Digital Data Service (ADDS)

Output produced by TAFs form (0901 UTC 20 October 2017)
found at http://www.aviationweather.gov/adds/tafs/
 
KCHS 200856Z 00000KT 10SM CLR 13/13 A3020 RMK AO2 SLP227 T01330128 55002
KCHS 200520Z 2006/2106 02005KT P6SM SKC 
     FM202100 11006KT P6SM FEW250